sensor_id;sensor_type;location;lat;lon;timestamp;temperature;humidity
31725;DHT22;18306;40.960;14.836;2023-08-01T00:02:04;27.20;99.90
31725;DHT22;18306;40.960;14.836;2023-08-01T00:04:31;27.20;99.90
31725;DHT22;18306;40.960;14.836;2023-08-01T00:06:58;27.10;99.90
31725;DHT22;18306;40.960;14.836;2023-08-01T00:09:25;27.00;99.90
31725;DHT22;18306;40.960;14.836;2023-08-01T00:11:52;26.90;99.90
31725;DHT22;18306;40.960;14.836;2023-08-01T00:14:19;26.80;99.90
31725;DHT22;18306;40.960;14.836;2023-08-01T00:16:46;26.80;99.90
31725;DHT22;18306;40.960;14.836;2023-08-01T00:19:14;26.90;99.90
31725;DHT22;18306;40.960;14.836;2023-08-01T00:21:42;26.80;99.90
31725;DHT22;18306;40.960;14.836;2023-08-01T00:24:09;26.90;99.90
31725;DHT22;18306;40.960;14.836;2023-08-01T00:26:36;26.90;99.90
31725;DHT22;18306;40.960;14.836;2023-08-01T00:29:03;27.00;99.90
31725;DHT22;18306;40.960;14.836;2023-08-01T00:31:30;27.00;99.90
31725;DHT22;18306;40.960;14.836;2023-08-01T00:33:57;27.00;99.90
31725;DHT22;18306;40.960;14.836;2023-08-01T00:36:24;26.90;99.90
31725;DHT22;18306;40.960;14.836;2023-08-01T00:38:51;26.90;99.90
31725;DHT22;18306;40.960;14.836;2023-08-01T00:41:19;27.00;99.90
31725;DHT22;18306;40.960;14.836;2023-08-01T00:43:46;27.00;99.90
31725;DHT22;18306;40.960;14.836;2023-08-01T00:46:15;27.00;99.90
31725;DHT22;18306;40.960;14.836;2023-08-01T00:48:42;27.00;99.90
31725;DHT22;18306;40.960;14.836;2023-08-01T00:51:09;27.00;99.90
31725;DHT22;18306;40.960;14.836;2023-08-01T00:53:39;26.80;99.90
31725;DHT22;18306;40.960;14.836;2023-08-01T00:56:06;26.80;99.90
31725;DHT22;18306;40.960;14.836;2023-08-01T00:58:33;26.80;99.90
31725;DHT22;18306;40.960;14.836;2023-08-01T01:01:00;26.80;99.90
31725;DHT22;18306;40.960;14.836;2023-08-01T01:03:27;26.70;99.90
31725;DHT22;18306;40.960;14.836;2023-08-01T01:08:52;26.60;99.90
31725;DHT22;18306;40.960;14.836;2023-08-01T01:11:20;26.60;99.90
31725;DHT22;18306;40.960;14.836;2023-08-01T01:13:47;26.60;99.90
31725;DHT22;18306;40.960;14.836;2023-08-01T01:16:14;26.60;99.90
31725;DHT22;18306;40.960;14.836;2023-08-01T01:18:41;26.60;99.90
31725;DHT22;18306;40.960;14.836;2023-08-01T01:21:08;26.50;99.90
31725;DHT22;18306;40.960;14.836;2023-08-01T01:23:36;26.50;99.90
31725;DHT22;18306;40.960;14.836;2023-08-01T01:26:04;26.50;99.90
31725;DHT22;18306;40.960;14.836;2023-08-01T01:28:33;26.60;99.90
31725;DHT22;18306;40.960;14.836;2023-08-01T01:31:02;26.60;99.90
31725;DHT22;18306;40.960;14.836;2023-08-01T01:33:29;26.50;99.90
31725;DHT22;18306;40.960;14.836;2023-08-01T01:35:57;26.40;99.90
31725;DHT22;18306;40.960;14.836;2023-08-01T01:38:24;26.40;99.90
31725;DHT22;18306;40.960;14.836;2023-08-01T01:40:51;26.40;99.90
31725;DHT22;18306;40.960;14.836;2023-08-01T01:43:18;26.40;99.90
31725;DHT22;18306;40.960;14.836;2023-08-01T01:45:45;26.40;99.90
31725;DHT22;18306;40.960;14.836;2023-08-01T01:48:12;26.30;99.90
31725;DHT22;18306;40.960;14.836;2023-08-01T01:50:38;26.30;99.90
31725;DHT22;18306;40.960;14.836;2023-08-01T01:53:06;26.30;99.90
31725;DHT22;18306;40.960;14.836;2023-08-01T01:55:33;26.30;99.90
31725;DHT22;18306;40.960;14.836;2023-08-01T01:58:01;26.30;99.90
31725;DHT22;18306;40.960;14.836;2023-08-01T02:00:29;26.30;99.90
31725;DHT22;18306;40.960;14.836;2023-08-01T02:02:56;26.30;99.90
31725;DHT22;18306;40.960;14.836;2023-08-01T02:05:23;26.30;99.90
31725;DHT22;18306;40.960;14.836;2023-08-01T02:07:50;26.30;99.90
31725;DHT22;18306;40.960;14.836;2023-08-01T02:10:17;26.30;99.90
31725;DHT22;18306;40.960;14.836;2023-08-01T02:12:44;26.20;99.90
31725;DHT22;18306;40.960;14.836;2023-08-01T02:15:11;26.20;99.90
31725;DHT22;18306;40.960;14.836;2023-08-01T02:17:39;26.20;99.90
31725;DHT22;18306;40.960;14.836;2023-08-01T02:20:06;26.20;99.90
31725;DHT22;18306;40.960;14.836;2023-08-01T02:22:34;26.30;99.90
31725;DHT22;18306;40.960;14.836;2023-08-01T02:25:01;26.20;99.90
31725;DHT22;18306;40.960;14.836;2023-08-01T02:27:28;26.20;99.90
31725;DHT22;18306;40.960;14.836;2023-08-01T02:29:55;26.20;99.90
31725;DHT22;18306;40.960;14.836;2023-08-01T02:32:22;26.30;99.90
31725;DHT22;18306;40.960;14.836;2023-08-01T02:34:49;26.10;99.90
31725;DHT22;18306;40.960;14.836;2023-08-01T02:37:16;26.10;99.90
31725;DHT22;18306;40.960;14.836;2023-08-01T02:39:43;26.10;99.90
31725;DHT22;18306;40.960;14.836;2023-08-01T02:42:10;26.10;99.90
31725;DHT22;18306;40.960;14.836;2023-08-01T02:44:37;26.00;99.90
31725;DHT22;18306;40.960;14.836;2023-08-01T02:47:04;26.10;99.90
31725;DHT22;18306;40.960;14.836;2023-08-01T02:49:32;26.10;99.90
31725;DHT22;18306;40.960;14.836;2023-08-01T02:51:59;26.00;99.90
31725;DHT22;18306;40.960;14.836;2023-08-01T02:54:26;25.90;99.90
31725;DHT22;18306;40.960;14.836;2023-08-01T02:56:53;25.80;99.90
31725;DHT22;18306;40.960;14.836;2023-08-01T02:59:20;25.80;99.90
31725;DHT22;18306;40.960;14.836;2023-08-01T03:01:47;25.80;99.90
31725;DHT22;18306;40.960;14.836;2023-08-01T03:04:14;25.80;99.90
31725;DHT22;18306;40.960;14.836;2023-08-01T03:06:41;25.70;99.90
31725;DHT22;18306;40.960;14.836;2023-08-01T03:09:08;25.60;99.90
31725;DHT22;18306;40.960;14.836;2023-08-01T03:11:36;25.70;99.90
31725;DHT22;18306;40.960;14.836;2023-08-01T03:14:03;25.80;99.90
31725;DHT22;18306;40.960;14.836;2023-08-01T03:16:34;25.80;99.90
31725;DHT22;18306;40.960;14.836;2023-08-01T03:19:01;25.80;99.90
31725;DHT22;18306;40.960;14.836;2023-08-01T03:21:35;25.70;99.90
31725;DHT22;18306;40.960;14.836;2023-08-01T03:24:03;25.70;99.90
31725;DHT22;18306;40.960;14.836;2023-08-01T03:26:30;25.70;99.90
31725;DHT22;18306;40.960;14.836;2023-08-01T03:28:57;25.60;99.90
31725;DHT22;18306;40.960;14.836;2023-08-01T03:31:24;25.60;99.90
31725;DHT22;18306;40.960;14.836;2023-08-01T03:33:51;25.60;99.90
31725;DHT22;18306;40.960;14.836;2023-08-01T03:36:18;25.60;99.90
31725;DHT22;18306;40.960;14.836;2023-08-01T03:38:45;25.60;99.90
31725;DHT22;18306;40.960;14.836;2023-08-01T03:41:13;25.70;99.90
31725;DHT22;18306;40.960;14.836;2023-08-01T03:43:40;25.70;99.90
31725;DHT22;18306;40.960;14.836;2023-08-01T03:46:07;25.60;99.90
31725;DHT22;18306;40.960;14.836;2023-08-01T03:48:34;25.60;99.90
31725;DHT22;18306;40.960;14.836;2023-08-01T03:51:01;25.60;99.90
31725;DHT22;18306;40.960;14.836;2023-08-01T03:53:30;25.60;99.90
31725;DHT22;18306;40.960;14.836;2023-08-01T03:55:57;25.60;99.90
31725;DHT22;18306;40.960;14.836;2023-08-01T03:58:24;25.60;99.90
31725;DHT22;18306;40.960;14.836;2023-08-01T04:00:51;25.60;99.90
31725;DHT22;18306;40.960;14.836;2023-08-01T04:03:18;25.70;99.90
31725;DHT22;18306;40.960;14.836;2023-08-01T04:05:45;25.70;99.90
31725;DHT22;18306;40.960;14.836;2023-08-01T04:08:12;25.80;99.90
31725;DHT22;18306;40.960;14.836;2023-08-01T04:10:39;25.70;99.90
31725;DHT22;18306;40.960;14.836;2023-08-01T04:13:06;25.70;99.90
31725;DHT22;18306;40.960;14.836;2023-08-01T04:15:33;25.60;99.90
31725;DHT22;18306;40.960;14.836;2023-08-01T04:18:00;25.70;99.90
31725;DHT22;18306;40.960;14.836;2023-08-01T04:20:27;25.60;99.90
31725;DHT22;18306;40.960;14.836;2023-08-01T04:22:54;25.70;99.90
31725;DHT22;18306;40.960;14.836;2023-08-01T04:25:21;25.60;99.90
31725;DHT22;18306;40.960;14.836;2023-08-01T04:27:50;25.60;99.90
31725;DHT22;18306;40.960;14.836;2023-08-01T04:30:17;25.60;99.90
31725;DHT22;18306;40.960;14.836;2023-08-01T04:32:44;25.60;99.90
31725;DHT22;18306;40.960;14.836;2023-08-01T04:35:11;25.50;99.90
31725;DHT22;18306;40.960;14.836;2023-08-01T04:37:39;25.50;99.90
31725;DHT22;18306;40.960;14.836;2023-08-01T04:40:06;25.60;99.90
31725;DHT22;18306;40.960;14.836;2023-08-01T04:42:34;25.60;99.90
31725;DHT22;18306;40.960;14.836;2023-08-01T04:45:01;25.60;99.90
31725;DHT22;18306;40.960;14.836;2023-08-01T04:47:29;25.60;99.90
31725;DHT22;18306;40.960;14.836;2023-08-01T04:49:56;25.70;99.90
31725;DHT22;18306;40.960;14.836;2023-08-01T04:52:23;25.70;99.90
31725;DHT22;18306;40.960;14.836;2023-08-01T04:54:50;25.60;99.90
31725;DHT22;18306;40.960;14.836;2023-08-01T04:57:17;25.60;99.90
31725;DHT22;18306;40.960;14.836;2023-08-01T04:59:44;25.70;99.90
31725;DHT22;18306;40.960;14.836;2023-08-01T05:02:11;25.70;99.90
31725;DHT22;18306;40.960;14.836;2023-08-01T05:04:38;25.60;99.90
31725;DHT22;18306;40.960;14.836;2023-08-01T05:07:05;25.70;99.90
31725;DHT22;18306;40.960;14.836;2023-08-01T05:09:33;25.80;99.90
31725;DHT22;18306;40.960;14.836;2023-08-01T05:12:00;25.90;99.90
31725;DHT22;18306;40.960;14.836;2023-08-01T05:14:27;25.90;99.90
31725;DHT22;18306;40.960;14.836;2023-08-01T05:16:54;25.90;99.90
31725;DHT22;18306;40.960;14.836;2023-08-01T05:19:21;26.00;99.90
31725;DHT22;18306;40.960;14.836;2023-08-01T05:21:48;26.10;99.90
31725;DHT22;18306;40.960;14.836;2023-08-01T05:24:15;26.10;99.90
31725;DHT22;18306;40.960;14.836;2023-08-01T05:26:42;26.20;99.90
31725;DHT22;18306;40.960;14.836;2023-08-01T05:29:09;26.30;99.90
31725;DHT22;18306;40.960;14.836;2023-08-01T05:31:36;26.40;99.90
31725;DHT22;18306;40.960;14.836;2023-08-01T05:34:03;26.50;99.90
31725;DHT22;18306;40.960;14.836;2023-08-01T05:36:30;26.70;99.90
31725;DHT22;18306;40.960;14.836;2023-08-01T05:38:57;27.00;99.90
31725;DHT22;18306;40.960;14.836;2023-08-01T05:41:24;27.30;99.90
31725;DHT22;18306;40.960;14.836;2023-08-01T05:43:52;27.70;99.90
31725;DHT22;18306;40.960;14.836;2023-08-01T05:46:19;28.00;99.90
31725;DHT22;18306;40.960;14.836;2023-08-01T05:48:46;28.10;99.90
31725;DHT22;18306;40.960;14.836;2023-08-01T05:51:13;28.30;99.90
31725;DHT22;18306;40.960;14.836;2023-08-01T05:53:40;28.80;99.90
31725;DHT22;18306;40.960;14.836;2023-08-01T05:56:07;29.50;99.90
31725;DHT22;18306;40.960;14.836;2023-08-01T05:58:35;30.20;99.90
31725;DHT22;18306;40.960;14.836;2023-08-01T06:01:03;31.00;99.90
31725;DHT22;18306;40.960;14.836;2023-08-01T06:03:30;31.80;99.90
31725;DHT22;18306;40.960;14.836;2023-08-01T06:05:57;32.70;99.30
31725;DHT22;18306;40.960;14.836;2023-08-01T06:08:24;33.70;98.30
31725;DHT22;18306;40.960;14.836;2023-08-01T06:10:51;34.70;96.70
31725;DHT22;18306;40.960;14.836;2023-08-01T06:13:19;35.70;95.90
31725;DHT22;18306;40.960;14.836;2023-08-01T06:15:47;36.70;94.40
31725;DHT22;18306;40.960;14.836;2023-08-01T06:18:16;37.50;93.40
31725;DHT22;18306;40.960;14.836;2023-08-01T06:20:43;37.90;92.40
31725;DHT22;18306;40.960;14.836;2023-08-01T06:23:10;38.30;92.40
31725;DHT22;18306;40.960;14.836;2023-08-01T06:25:37;38.90;91.60
31725;DHT22;18306;40.960;14.836;2023-08-01T06:28:04;39.40;90.30
31725;DHT22;18306;40.960;14.836;2023-08-01T06:30:31;39.30;90.60
31725;DHT22;18306;40.960;14.836;2023-08-01T06:32:58;39.10;90.50
31725;DHT22;18306;40.960;14.836;2023-08-01T06:35:25;38.40;91.30
31725;DHT22;18306;40.960;14.836;2023-08-01T06:37:52;37.70;92.10
31725;DHT22;18306;40.960;14.836;2023-08-01T06:40:19;37.00;92.90
31725;DHT22;18306;40.960;14.836;2023-08-01T06:42:46;36.30;94.00
31725;DHT22;18306;40.960;14.836;2023-08-01T06:45:13;35.60;94.30
31725;DHT22;18306;40.960;14.836;2023-08-01T06:47:40;35.00;95.00
31725;DHT22;18306;40.960;14.836;2023-08-01T06:50:07;34.30;96.00
31725;DHT22;18306;40.960;14.836;2023-08-01T06:52:34;33.90;96.30
31725;DHT22;18306;40.960;14.836;2023-08-01T06:55:01;33.50;97.00
31725;DHT22;18306;40.960;14.836;2023-08-01T06:57:28;33.10;97.60
31725;DHT22;18306;40.960;14.836;2023-08-01T06:59:55;32.90;97.90
31725;DHT22;18306;40.960;14.836;2023-08-01T07:02:22;32.80;98.80
31725;DHT22;18306;40.960;14.836;2023-08-01T07:04:49;32.70;98.60
31725;DHT22;18306;40.960;14.836;2023-08-01T07:07:16;32.60;98.90
31725;DHT22;18306;40.960;14.836;2023-08-01T07:09:43;32.40;99.40
31725;DHT22;18306;40.960;14.836;2023-08-01T07:12:10;32.40;99.70
31725;DHT22;18306;40.960;14.836;2023-08-01T07:14:38;32.20;99.60
31725;DHT22;18306;40.960;14.836;2023-08-01T07:17:05;32.20;99.90
31725;DHT22;18306;40.960;14.836;2023-08-01T07:19:32;32.00;99.90
31725;DHT22;18306;40.960;14.836;2023-08-01T07:21:59;31.90;99.80
31725;DHT22;18306;40.960;14.836;2023-08-01T07:24:27;31.80;99.90
31725;DHT22;18306;40.960;14.836;2023-08-01T07:26:53;31.70;99.90
31725;DHT22;18306;40.960;14.836;2023-08-01T07:29:21;31.50;99.90
31725;DHT22;18306;40.960;14.836;2023-08-01T07:31:47;31.60;99.90
31725;DHT22;18306;40.960;14.836;2023-08-01T07:34:14;31.80;99.90
31725;DHT22;18306;40.960;14.836;2023-08-01T07:36:42;31.90;99.90
31725;DHT22;18306;40.960;14.836;2023-08-01T07:39:09;31.70;99.80
31725;DHT22;18306;40.960;14.836;2023-08-01T07:41:36;31.30;99.90
31725;DHT22;18306;40.960;14.836;2023-08-01T07:44:03;30.80;99.90
31725;DHT22;18306;40.960;14.836;2023-08-01T07:46:32;30.50;99.90
31725;DHT22;18306;40.960;14.836;2023-08-01T07:48:59;30.50;99.90
31725;DHT22;18306;40.960;14.836;2023-08-01T07:51:30;30.60;99.90
31725;DHT22;18306;40.960;14.836;2023-08-01T07:53:57;30.80;99.90
31725;DHT22;18306;40.960;14.836;2023-08-01T07:56:24;31.20;99.90
31725;DHT22;18306;40.960;14.836;2023-08-01T07:58:51;31.60;99.70
31725;DHT22;18306;40.960;14.836;2023-08-01T08:01:18;32.50;99.10
31725;DHT22;18306;40.960;14.836;2023-08-01T08:03:44;33.20;97.80
31725;DHT22;18306;40.960;14.836;2023-08-01T08:06:12;33.60;97.10
31725;DHT22;18306;40.960;14.836;2023-08-01T08:08:39;34.00;96.40
31725;DHT22;18306;40.960;14.836;2023-08-01T08:11:06;34.20;96.10
31725;DHT22;18306;40.960;14.836;2023-08-01T08:13:33;34.40;96.10
31725;DHT22;18306;40.960;14.836;2023-08-01T08:16:00;34.50;96.10
31725;DHT22;18306;40.960;14.836;2023-08-01T08:18:27;34.30;95.70
31725;DHT22;18306;40.960;14.836;2023-08-01T08:20:54;33.60;95.90
31725;DHT22;18306;40.960;14.836;2023-08-01T08:23:21;33.10;96.80
31725;DHT22;18306;40.960;14.836;2023-08-01T08:25:48;33.00;97.30
31725;DHT22;18306;40.960;14.836;2023-08-01T08:28:29;32.60;97.50
31725;DHT22;18306;40.960;14.836;2023-08-01T08:30:57;32.20;98.10
31725;DHT22;18306;40.960;14.836;2023-08-01T08:33:24;32.20;97.90
31725;DHT22;18306;40.960;14.836;2023-08-01T08:35:51;32.20;98.30
31725;DHT22;18306;40.960;14.836;2023-08-01T08:38:18;32.10;98.10
31725;DHT22;18306;40.960;14.836;2023-08-01T08:41:13;32.10;98.40
31725;DHT22;18306;40.960;14.836;2023-08-01T08:43:41;32.00;98.50
31725;DHT22;18306;40.960;14.836;2023-08-01T08:46:09;31.70;98.40
31725;DHT22;18306;40.960;14.836;2023-08-01T08:48:39;31.50;98.70
31725;DHT22;18306;40.960;14.836;2023-08-01T08:51:07;31.40;98.90
31725;DHT22;18306;40.960;14.836;2023-08-01T08:53:35;31.40;99.40
31725;DHT22;18306;40.960;14.836;2023-08-01T08:56:02;31.30;98.70
31725;DHT22;18306;40.960;14.836;2023-08-01T08:58:31;31.40;98.60
31725;DHT22;18306;40.960;14.836;2023-08-01T09:01:12;31.20;98.30
31725;DHT22;18306;40.960;14.836;2023-08-01T09:03:39;30.80;98.50
31725;DHT22;18306;40.960;14.836;2023-08-01T09:06:22;30.80;98.90
31725;DHT22;18306;40.960;14.836;2023-08-01T09:08:55;31.00;98.30
31725;DHT22;18306;40.960;14.836;2023-08-01T09:11:24;31.30;98.50
31725;DHT22;18306;40.960;14.836;2023-08-01T09:13:51;31.70;97.50
31725;DHT22;18306;40.960;14.836;2023-08-01T09:16:18;31.90;96.40
31725;DHT22;18306;40.960;14.836;2023-08-01T09:18:52;32.10;96.50
31725;DHT22;18306;40.960;14.836;2023-08-01T09:21:22;31.70;97.40
31725;DHT22;18306;40.960;14.836;2023-08-01T09:23:50;31.40;97.60
31725;DHT22;18306;40.960;14.836;2023-08-01T09:26:19;31.40;98.10
31725;DHT22;18306;40.960;14.836;2023-08-01T09:28:59;31.50;97.50
31725;DHT22;18306;40.960;14.836;2023-08-01T09:31:27;31.30;97.70
31725;DHT22;18306;40.960;14.836;2023-08-01T09:33:55;31.10;97.70
31725;DHT22;18306;40.960;14.836;2023-08-01T09:36:23;30.90;97.80
31725;DHT22;18306;40.960;14.836;2023-08-01T09:38:50;30.90;97.70
31725;DHT22;18306;40.960;14.836;2023-08-01T09:41:18;30.70;97.50
31725;DHT22;18306;40.960;14.836;2023-08-01T09:43:46;30.60;97.10
31725;DHT22;18306;40.960;14.836;2023-08-01T09:46:14;30.60;97.20
31725;DHT22;18306;40.960;14.836;2023-08-01T09:48:41;30.80;97.10
31725;DHT22;18306;40.960;14.836;2023-08-01T09:51:15;31.00;97.20
31725;DHT22;18306;40.960;14.836;2023-08-01T09:53:53;31.10;97.30
31725;DHT22;18306;40.960;14.836;2023-08-01T09:56:27;31.00;97.40
31725;DHT22;18306;40.960;14.836;2023-08-01T09:58:55;31.30;96.40
31725;DHT22;18306;40.960;14.836;2023-08-01T10:01:24;31.20;95.80
31725;DHT22;18306;40.960;14.836;2023-08-01T10:03:53;31.00;95.70
31725;DHT22;18306;40.960;14.836;2023-08-01T10:06:22;31.10;95.90
31725;DHT22;18306;40.960;14.836;2023-08-01T10:08:51;31.00;95.30
31725;DHT22;18306;40.960;14.836;2023-08-01T10:11:24;31.10;95.30
31725;DHT22;18306;40.960;14.836;2023-08-01T10:13:51;31.30;95.80
31725;DHT22;18306;40.960;14.836;2023-08-01T10:16:18;31.40;95.30
31725;DHT22;18306;40.960;14.836;2023-08-01T10:18:45;31.30;95.10
31725;DHT22;18306;40.960;14.836;2023-08-01T10:21:16;31.10;95.70
31725;DHT22;18306;40.960;14.836;2023-08-01T10:23:45;31.10;95.90
31725;DHT22;18306;40.960;14.836;2023-08-01T10:26:14;31.20;95.60
31725;DHT22;18306;40.960;14.836;2023-08-01T10:28:49;31.20;95.60
31725;DHT22;18306;40.960;14.836;2023-08-01T10:31:18;31.30;95.60
31725;DHT22;18306;40.960;14.836;2023-08-01T10:33:48;31.40;96.10
31725;DHT22;18306;40.960;14.836;2023-08-01T10:36:21;31.10;96.30
31725;DHT22;18306;40.960;14.836;2023-08-01T10:38:57;31.20;96.30
31725;DHT22;18306;40.960;14.836;2023-08-01T10:41:35;31.20;96.40
31725;DHT22;18306;40.960;14.836;2023-08-01T10:44:09;31.20;95.90
31725;DHT22;18306;40.960;14.836;2023-08-01T10:49:37;31.40;96.90
31725;DHT22;18306;40.960;14.836;2023-08-01T10:52:25;31.40;97.00
31725;DHT22;18306;40.960;14.836;2023-08-01T10:55:01;31.20;97.20
31725;DHT22;18306;40.960;14.836;2023-08-01T10:57:30;31.20;97.50
31725;DHT22;18306;40.960;14.836;2023-08-01T10:59:58;31.10;97.70
31725;DHT22;18306;40.960;14.836;2023-08-01T11:02:29;31.00;98.00
31725;DHT22;18306;40.960;14.836;2023-08-01T11:07:24;30.90;98.80
31725;DHT22;18306;40.960;14.836;2023-08-01T11:10:14;31.00;98.60
31725;DHT22;18306;40.960;14.836;2023-08-01T11:12:43;30.90;97.70
31725;DHT22;18306;40.960;14.836;2023-08-01T11:15:12;31.00;98.20
31725;DHT22;18306;40.960;14.836;2023-08-01T11:17:43;31.10;98.50
31725;DHT22;18306;40.960;14.836;2023-08-01T11:20:19;31.20;98.80
31725;DHT22;18306;40.960;14.836;2023-08-01T11:22:59;30.90;98.80
31725;DHT22;18306;40.960;14.836;2023-08-01T11:28:07;30.90;98.80
31725;DHT22;18306;40.960;14.836;2023-08-01T11:30:35;30.90;99.00
31725;DHT22;18306;40.960;14.836;2023-08-01T11:33:13;30.90;99.00
31725;DHT22;18306;40.960;14.836;2023-08-01T11:35:41;30.80;99.00
31725;DHT22;18306;40.960;14.836;2023-08-01T11:38:09;31.00;99.30
31725;DHT22;18306;40.960;14.836;2023-08-01T11:40:37;31.00;99.50
31725;DHT22;18306;40.960;14.836;2023-08-01T11:43:04;30.90;99.10
31725;DHT22;18306;40.960;14.836;2023-08-01T11:45:32;31.10;98.90
31725;DHT22;18306;40.960;14.836;2023-08-01T11:47:59;31.00;98.50
31725;DHT22;18306;40.960;14.836;2023-08-01T11:50:26;31.10;98.70
31725;DHT22;18306;40.960;14.836;2023-08-01T11:52:54;31.10;98.30
31725;DHT22;18306;40.960;14.836;2023-08-01T11:55:21;31.10;98.10
31725;DHT22;18306;40.960;14.836;2023-08-01T11:57:53;31.20;98.30
31725;DHT22;18306;40.960;14.836;2023-08-01T12:00:22;31.10;98.30
31725;DHT22;18306;40.960;14.836;2023-08-01T12:02:50;31.10;98.60
31725;DHT22;18306;40.960;14.836;2023-08-01T12:05:28;31.10;98.50
31725;DHT22;18306;40.960;14.836;2023-08-01T12:08:31;31.30;98.40
31725;DHT22;18306;40.960;14.836;2023-08-01T12:11:00;31.30;98.20
31725;DHT22;18306;40.960;14.836;2023-08-01T12:13:28;31.20;97.70
31725;DHT22;18306;40.960;14.836;2023-08-01T12:15:56;31.10;97.90
31725;DHT22;18306;40.960;14.836;2023-08-01T12:18:28;31.20;98.30
31725;DHT22;18306;40.960;14.836;2023-08-01T12:20:55;31.30;98.00
31725;DHT22;18306;40.960;14.836;2023-08-01T12:23:24;31.10;98.30
31725;DHT22;18306;40.960;14.836;2023-08-01T12:25:53;31.10;97.90
31725;DHT22;18306;40.960;14.836;2023-08-01T12:28:19;31.10;98.10
31725;DHT22;18306;40.960;14.836;2023-08-01T12:30:47;31.20;97.60
31725;DHT22;18306;40.960;14.836;2023-08-01T12:33:15;31.20;97.80
31725;DHT22;18306;40.960;14.836;2023-08-01T12:35:42;31.10;98.20
31725;DHT22;18306;40.960;14.836;2023-08-01T12:38:09;31.20;97.90
31725;DHT22;18306;40.960;14.836;2023-08-01T12:40:37;31.30;97.70
31725;DHT22;18306;40.960;14.836;2023-08-01T12:43:04;31.30;97.30
31725;DHT22;18306;40.960;14.836;2023-08-01T12:45:31;31.30;96.70
31725;DHT22;18306;40.960;14.836;2023-08-01T12:47:59;31.30;96.80
31725;DHT22;18306;40.960;14.836;2023-08-01T12:50:26;31.50;96.80
31725;DHT22;18306;40.960;14.836;2023-08-01T12:52:53;31.60;96.40
31725;DHT22;18306;40.960;14.836;2023-08-01T12:55:20;31.50;96.30
31725;DHT22;18306;40.960;14.836;2023-08-01T12:57:48;31.40;96.10
31725;DHT22;18306;40.960;14.836;2023-08-01T13:00:16;31.50;96.20
31725;DHT22;18306;40.960;14.836;2023-08-01T13:02:43;31.30;96.30
31725;DHT22;18306;40.960;14.836;2023-08-01T13:05:10;31.40;96.30
31725;DHT22;18306;40.960;14.836;2023-08-01T13:07:37;31.50;96.30
31725;DHT22;18306;40.960;14.836;2023-08-01T13:10:06;31.40;96.00
31725;DHT22;18306;40.960;14.836;2023-08-01T13:12:41;31.30;95.80
31725;DHT22;18306;40.960;14.836;2023-08-01T13:15:09;31.20;95.40
31725;DHT22;18306;40.960;14.836;2023-08-01T13:17:36;31.10;95.40
31725;DHT22;18306;40.960;14.836;2023-08-01T13:20:37;31.20;95.20
31725;DHT22;18306;40.960;14.836;2023-08-01T13:23:14;31.30;94.60
31725;DHT22;18306;40.960;14.836;2023-08-01T13:25:42;31.20;94.60
31725;DHT22;18306;40.960;14.836;2023-08-01T13:28:12;31.10;95.30
31725;DHT22;18306;40.960;14.836;2023-08-01T13:30:40;31.10;96.40
31725;DHT22;18306;40.960;14.836;2023-08-01T13:33:07;31.20;96.50
31725;DHT22;18306;40.960;14.836;2023-08-01T13:35:34;31.30;96.40
31725;DHT22;18306;40.960;14.836;2023-08-01T13:38:01;31.30;96.40
31725;DHT22;18306;40.960;14.836;2023-08-01T13:40:30;31.10;96.70
31725;DHT22;18306;40.960;14.836;2023-08-01T13:42:57;31.00;96.80
31725;DHT22;18306;40.960;14.836;2023-08-01T13:45:24;31.20;97.20
31725;DHT22;18306;40.960;14.836;2023-08-01T13:47:51;31.20;96.80
31725;DHT22;18306;40.960;14.836;2023-08-01T13:50:18;31.00;97.00
31725;DHT22;18306;40.960;14.836;2023-08-01T13:52:45;30.90;97.60
31725;DHT22;18306;40.960;14.836;2023-08-01T13:55:12;30.80;97.60
31725;DHT22;18306;40.960;14.836;2023-08-01T13:57:42;31.00;97.60
31725;DHT22;18306;40.960;14.836;2023-08-01T14:00:09;30.80;98.00
31725;DHT22;18306;40.960;14.836;2023-08-01T14:02:42;30.70;98.00
31725;DHT22;18306;40.960;14.836;2023-08-01T14:05:09;30.70;98.40
31725;DHT22;18306;40.960;14.836;2023-08-01T14:07:37;30.80;98.60
31725;DHT22;18306;40.960;14.836;2023-08-01T14:10:04;31.00;98.10
31725;DHT22;18306;40.960;14.836;2023-08-01T14:12:32;31.00;98.20
31725;DHT22;18306;40.960;14.836;2023-08-01T14:14:59;31.10;97.80
31725;DHT22;18306;40.960;14.836;2023-08-01T14:17:27;31.30;97.80
31725;DHT22;18306;40.960;14.836;2023-08-01T14:19:55;31.30;97.10
31725;DHT22;18306;40.960;14.836;2023-08-01T14:22:27;31.20;97.80
31725;DHT22;18306;40.960;14.836;2023-08-01T14:24:56;31.10;97.80
31725;DHT22;18306;40.960;14.836;2023-08-01T14:27:30;31.00;98.00
31725;DHT22;18306;40.960;14.836;2023-08-01T14:29:59;31.30;97.60
31725;DHT22;18306;40.960;14.836;2023-08-01T14:32:26;31.60;96.70
31725;DHT22;18306;40.960;14.836;2023-08-01T14:34:53;31.50;96.90
31725;DHT22;18306;40.960;14.836;2023-08-01T14:37:20;31.40;97.10
31725;DHT22;18306;40.960;14.836;2023-08-01T14:39:52;31.30;96.80
31725;DHT22;18306;40.960;14.836;2023-08-01T14:42:19;31.30;96.40
31725;DHT22;18306;40.960;14.836;2023-08-01T14:44:54;31.10;96.60
31725;DHT22;18306;40.960;14.836;2023-08-01T14:47:21;31.10;96.80
31725;DHT22;18306;40.960;14.836;2023-08-01T14:49:49;30.90;96.40
31725;DHT22;18306;40.960;14.836;2023-08-01T14:52:16;30.80;96.90
31725;DHT22;18306;40.960;14.836;2023-08-01T14:54:43;30.90;96.90
31725;DHT22;18306;40.960;14.836;2023-08-01T14:57:10;31.00;97.00
31725;DHT22;18306;40.960;14.836;2023-08-01T14:59:37;31.00;97.20
31725;DHT22;18306;40.960;14.836;2023-08-01T15:02:05;31.20;97.40
31725;DHT22;18306;40.960;14.836;2023-08-01T15:04:33;31.00;96.90
31725;DHT22;18306;40.960;14.836;2023-08-01T15:07:01;30.90;97.00
31725;DHT22;18306;40.960;14.836;2023-08-01T15:09:30;30.70;97.40
31725;DHT22;18306;40.960;14.836;2023-08-01T15:11:57;30.60;97.40
31725;DHT22;18306;40.960;14.836;2023-08-01T15:14:24;30.70;97.60
31725;DHT22;18306;40.960;14.836;2023-08-01T15:16:51;30.70;97.70
31725;DHT22;18306;40.960;14.836;2023-08-01T15:19:19;30.50;97.70
31725;DHT22;18306;40.960;14.836;2023-08-01T15:21:46;30.40;98.00
31725;DHT22;18306;40.960;14.836;2023-08-01T15:24:13;30.40;98.00
31725;DHT22;18306;40.960;14.836;2023-08-01T15:26:40;30.30;98.20
31725;DHT22;18306;40.960;14.836;2023-08-01T15:29:07;30.30;98.20
31725;DHT22;18306;40.960;14.836;2023-08-01T15:31:35;30.40;98.00
31725;DHT22;18306;40.960;14.836;2023-08-01T15:34:02;30.40;97.60